sensor_id;sensor_type;location;lat;lon;timestamp;P1;durP1;ratioP1;P2;durP2;ratioP2
2944;SDS011;1482;51.398;7.128;2023-03-07T00:01:40;23.20;;;14.00;;
2944;SDS011;1482;51.398;7.128;2023-03-07T00:04:05;28.80;;;14.10;;
2944;SDS011;1482;51.398;7.128;2023-03-07T00:06:31;24.37;;;14.73;;
2944;SDS011;1482;51.398;7.128;2023-03-07T00:08:57;22.43;;;13.03;;
2944;SDS011;1482;51.398;7.128;2023-03-07T00:11:25;20.60;;;12.63;;
2944;SDS011;1482;51.398;7.128;2023-03-07T00:13:51;22.27;;;12.77;;
2944;SDS011;1482;51.398;7.128;2023-03-07T00:16:18;18.53;;;12.77;;
2944;SDS011;1482;51.398;7.128;2023-03-07T00:18:45;19.73;;;13.00;;
2944;SDS011;1482;51.398;7.128;2023-03-07T00:21:11;21.23;;;12.30;;
2944;SDS011;1482;51.398;7.128;2023-03-07T00:23:40;22.07;;;13.03;;
2944;SDS011;1482;51.398;7.128;2023-03-07T00:26:07;21.37;;;11.87;;
2944;SDS011;1482;51.398;7.128;2023-03-07T00:28:44;17.73;;;10.70;;
2944;SDS011;1482;51.398;7.128;2023-03-07T00:31:11;19.90;;;12.10;;
2944;SDS011;1482;51.398;7.128;2023-03-07T00:33:37;16.47;;;10.90;;
2944;SDS011;1482;51.398;7.128;2023-03-07T00:36:05;16.90;;;10.87;;
2944;SDS011;1482;51.398;7.128;2023-03-07T00:38:32;20.07;;;12.07;;
2944;SDS011;1482;51.398;7.128;2023-03-07T00:41:20;18.70;;;10.97;;
2944;SDS011;1482;51.398;7.128;2023-03-07T00:43:44;15.73;;;11.10;;
2944;SDS011;1482;51.398;7.128;2023-03-07T00:46:11;17.40;;;12.17;;
2944;SDS011;1482;51.398;7.128;2023-03-07T00:48:38;14.30;;;11.03;;
2944;SDS011;1482;51.398;7.128;2023-03-07T00:51:05;14.67;;;10.07;;
2944;SDS011;1482;51.398;7.128;2023-03-07T00:53:32;17.50;;;11.00;;
2944;SDS011;1482;51.398;7.128;2023-03-07T00:56:11;14.27;;;9.80;;
2944;SDS011;1482;51.398;7.128;2023-03-07T00:58:42;19.20;;;10.90;;
2944;SDS011;1482;51.398;7.128;2023-03-07T01:01:08;13.50;;;9.30;;
2944;SDS011;1482;51.398;7.128;2023-03-07T01:03:35;16.63;;;10.13;;
2944;SDS011;1482;51.398;7.128;2023-03-07T01:06:01;12.00;;;10.43;;
2944;SDS011;1482;51.398;7.128;2023-03-07T01:08:29;14.70;;;10.33;;
2944;SDS011;1482;51.398;7.128;2023-03-07T01:10:59;15.03;;;10.57;;
2944;SDS011;1482;51.398;7.128;2023-03-07T01:13:26;11.80;;;9.90;;
2944;SDS011;1482;51.398;7.128;2023-03-07T01:15:52;13.27;;;9.03;;
2944;SDS011;1482;51.398;7.128;2023-03-07T01:18:18;12.43;;;8.90;;
2944;SDS011;1482;51.398;7.128;2023-03-07T01:20:43;14.10;;;9.67;;
2944;SDS011;1482;51.398;7.128;2023-03-07T01:23:09;12.27;;;8.30;;
2944;SDS011;1482;51.398;7.128;2023-03-07T01:25:38;13.37;;;9.17;;
2944;SDS011;1482;51.398;7.128;2023-03-07T01:28:05;14.00;;;10.57;;
2944;SDS011;1482;51.398;7.128;2023-03-07T01:30:31;10.20;;;8.80;;
2944;SDS011;1482;51.398;7.128;2023-03-07T01:32:58;11.77;;;9.90;;
2944;SDS011;1482;51.398;7.128;2023-03-07T01:35:25;13.87;;;9.70;;
2944;SDS011;1482;51.398;7.128;2023-03-07T01:37:51;12.37;;;10.07;;
2944;SDS011;1482;51.398;7.128;2023-03-07T01:40:18;10.77;;;7.97;;
2944;SDS011;1482;51.398;7.128;2023-03-07T01:42:45;11.43;;;8.63;;
2944;SDS011;1482;51.398;7.128;2023-03-07T01:47:36;12.50;;;8.13;;
2944;SDS011;1482;51.398;7.128;2023-03-07T01:50:03;12.50;;;7.93;;
2944;SDS011;1482;51.398;7.128;2023-03-07T01:52:40;12.03;;;9.07;;
2944;SDS011;1482;51.398;7.128;2023-03-07T01:55:23;12.27;;;8.50;;
2944;SDS011;1482;51.398;7.128;2023-03-07T01:57:57;13.70;;;9.20;;
2944;SDS011;1482;51.398;7.128;2023-03-07T02:00:31;12.30;;;8.70;;
2944;SDS011;1482;51.398;7.128;2023-03-07T02:05:26;9.50;;;7.43;;
2944;SDS011;1482;51.398;7.128;2023-03-07T02:07:58;10.17;;;7.57;;
2944;SDS011;1482;51.398;7.128;2023-03-07T02:10:25;10.70;;;7.80;;
2944;SDS011;1482;51.398;7.128;2023-03-07T02:12:52;10.00;;;7.77;;
2944;SDS011;1482;51.398;7.128;2023-03-07T02:15:18;7.20;;;6.47;;
2944;SDS011;1482;51.398;7.128;2023-03-07T02:17:44;7.80;;;5.10;;
2944;SDS011;1482;51.398;7.128;2023-03-07T02:22:47;6.30;;;5.43;;
2944;SDS011;1482;51.398;7.128;2023-03-07T02:25:18;6.27;;;5.40;;
2944;SDS011;1482;51.398;7.128;2023-03-07T02:27:50;6.47;;;5.20;;
2944;SDS011;1482;51.398;7.128;2023-03-07T02:30:18;5.30;;;4.80;;
2944;SDS011;1482;51.398;7.128;2023-03-07T02:32:43;6.17;;;5.27;;
2944;SDS011;1482;51.398;7.128;2023-03-07T02:35:11;5.63;;;5.03;;
2944;SDS011;1482;51.398;7.128;2023-03-07T02:37:38;5.17;;;4.67;;
2944;SDS011;1482;51.398;7.128;2023-03-07T02:40:06;5.43;;;4.87;;
2944;SDS011;1482;51.398;7.128;2023-03-07T02:42:36;5.90;;;5.30;;
2944;SDS011;1482;51.398;7.128;2023-03-07T02:45:08;4.63;;;4.23;;
2944;SDS011;1482;51.398;7.128;2023-03-07T02:47:36;6.20;;;5.30;;
2944;SDS011;1482;51.398;7.128;2023-03-07T02:50:01;5.67;;;5.10;;
2944;SDS011;1482;51.398;7.128;2023-03-07T02:52:28;6.23;;;5.10;;
2944;SDS011;1482;51.398;7.128;2023-03-07T02:54:54;6.57;;;5.40;;
2944;SDS011;1482;51.398;7.128;2023-03-07T02:57:20;6.23;;;5.63;;
2944;SDS011;1482;51.398;7.128;2023-03-07T02:59:45;5.50;;;4.80;;
2944;SDS011;1482;51.398;7.128;2023-03-07T03:02:11;7.03;;;4.37;;
2944;SDS011;1482;51.398;7.128;2023-03-07T03:04:37;6.03;;;4.43;;
2944;SDS011;1482;51.398;7.128;2023-03-07T03:07:02;4.60;;;3.97;;
2944;SDS011;1482;51.398;7.128;2023-03-07T03:09:28;5.27;;;4.40;;
2944;SDS011;1482;51.398;7.128;2023-03-07T03:11:53;4.80;;;4.40;;
2944;SDS011;1482;51.398;7.128;2023-03-07T03:14:19;4.30;;;3.93;;
2944;SDS011;1482;51.398;7.128;2023-03-07T03:16:44;4.47;;;4.07;;
2944;SDS011;1482;51.398;7.128;2023-03-07T03:19:10;4.30;;;3.90;;
2944;SDS011;1482;51.398;7.128;2023-03-07T03:21:35;5.03;;;4.57;;
2944;SDS011;1482;51.398;7.128;2023-03-07T03:24:07;4.17;;;3.77;;
2944;SDS011;1482;51.398;7.128;2023-03-07T03:26:34;3.40;;;3.10;;
2944;SDS011;1482;51.398;7.128;2023-03-07T03:29:00;4.00;;;3.30;;
2944;SDS011;1482;51.398;7.128;2023-03-07T03:31:27;5.30;;;3.77;;
2944;SDS011;1482;51.398;7.128;2023-03-07T03:33:54;4.40;;;4.00;;
2944;SDS011;1482;51.398;7.128;2023-03-07T03:36:20;4.70;;;4.03;;
2944;SDS011;1482;51.398;7.128;2023-03-07T03:38:51;4.00;;;3.50;;
2944;SDS011;1482;51.398;7.128;2023-03-07T03:41:17;4.50;;;4.10;;
2944;SDS011;1482;51.398;7.128;2023-03-07T03:43:43;6.50;;;5.23;;
2944;SDS011;1482;51.398;7.128;2023-03-07T03:46:08;3.60;;;3.30;;
2944;SDS011;1482;51.398;7.128;2023-03-07T03:48:34;4.50;;;3.80;;
2944;SDS011;1482;51.398;7.128;2023-03-07T03:51:17;7.27;;;5.37;;
2944;SDS011;1482;51.398;7.128;2023-03-07T03:53:44;5.97;;;4.70;;
2944;SDS011;1482;51.398;7.128;2023-03-07T03:56:13;6.47;;;5.07;;
2944;SDS011;1482;51.398;7.128;2023-03-07T03:58:41;4.50;;;4.17;;
2944;SDS011;1482;51.398;7.128;2023-03-07T04:01:08;6.53;;;4.47;;
2944;SDS011;1482;51.398;7.128;2023-03-07T04:03:42;5.40;;;4.20;;
2944;SDS011;1482;51.398;7.128;2023-03-07T04:06:10;5.77;;;4.70;;
2944;SDS011;1482;51.398;7.128;2023-03-07T04:08:37;5.00;;;4.50;;
2944;SDS011;1482;51.398;7.128;2023-03-07T04:11:03;5.00;;;4.50;;
2944;SDS011;1482;51.398;7.128;2023-03-07T04:13:30;5.80;;;4.30;;
2944;SDS011;1482;51.398;7.128;2023-03-07T04:15:56;4.80;;;4.30;;
2944;SDS011;1482;51.398;7.128;2023-03-07T04:18:22;6.23;;;4.17;;
2944;SDS011;1482;51.398;7.128;2023-03-07T04:20:48;4.10;;;3.70;;
2944;SDS011;1482;51.398;7.128;2023-03-07T04:23:18;4.03;;;3.47;;
2944;SDS011;1482;51.398;7.128;2023-03-07T04:28:22;7.60;;;5.17;;
2944;SDS011;1482;51.398;7.128;2023-03-07T04:30:48;5.63;;;5.03;;
2944;SDS011;1482;51.398;7.128;2023-03-07T04:33:16;7.20;;;5.70;;
2944;SDS011;1482;51.398;7.128;2023-03-07T04:35:42;7.13;;;6.23;;
2944;SDS011;1482;51.398;7.128;2023-03-07T04:38:07;8.03;;;6.53;;
2944;SDS011;1482;51.398;7.128;2023-03-07T04:40:33;10.00;;;7.40;;
2944;SDS011;1482;51.398;7.128;2023-03-07T04:42:59;13.40;;;9.57;;
2944;SDS011;1482;51.398;7.128;2023-03-07T04:45:25;12.87;;;9.47;;
2944;SDS011;1482;51.398;7.128;2023-03-07T04:47:51;9.93;;;7.80;;
2944;SDS011;1482;51.398;7.128;2023-03-07T04:50:17;10.33;;;9.23;;
2944;SDS011;1482;51.398;7.128;2023-03-07T04:52:43;12.87;;;9.63;;
2944;SDS011;1482;51.398;7.128;2023-03-07T04:55:09;13.80;;;9.70;;
2944;SDS011;1482;51.398;7.128;2023-03-07T04:57:35;16.83;;;10.70;;
2944;SDS011;1482;51.398;7.128;2023-03-07T05:00:00;12.77;;;10.80;;
2944;SDS011;1482;51.398;7.128;2023-03-07T05:02:27;12.93;;;11.23;;
2944;SDS011;1482;51.398;7.128;2023-03-07T05:04:53;12.17;;;10.80;;
2944;SDS011;1482;51.398;7.128;2023-03-07T05:07:18;15.43;;;10.53;;
2944;SDS011;1482;51.398;7.128;2023-03-07T05:09:44;15.60;;;11.07;;
2944;SDS011;1482;51.398;7.128;2023-03-07T05:12:09;17.47;;;12.23;;
2944;SDS011;1482;51.398;7.128;2023-03-07T05:14:35;15.63;;;11.37;;
2944;SDS011;1482;51.398;7.128;2023-03-07T05:17:00;14.67;;;11.30;;
2944;SDS011;1482;51.398;7.128;2023-03-07T05:19:26;11.07;;;9.83;;
2944;SDS011;1482;51.398;7.128;2023-03-07T05:21:52;18.17;;;11.83;;
2944;SDS011;1482;51.398;7.128;2023-03-07T05:24:18;15.53;;;12.40;;
2944;SDS011;1482;51.398;7.128;2023-03-07T05:26:44;17.47;;;13.43;;
2944;SDS011;1482;51.398;7.128;2023-03-07T05:29:09;13.90;;;11.27;;
2944;SDS011;1482;51.398;7.128;2023-03-07T05:31:35;14.67;;;11.70;;
2944;SDS011;1482;51.398;7.128;2023-03-07T05:34:00;12.23;;;10.00;;
2944;SDS011;1482;51.398;7.128;2023-03-07T05:36:26;15.20;;;11.00;;
2944;SDS011;1482;51.398;7.128;2023-03-07T05:38:52;15.03;;;10.87;;
2944;SDS011;1482;51.398;7.128;2023-03-07T05:41:20;16.90;;;11.17;;
2944;SDS011;1482;51.398;7.128;2023-03-07T05:43:46;16.80;;;12.53;;
2944;SDS011;1482;51.398;7.128;2023-03-07T05:46:11;13.53;;;10.60;;
2944;SDS011;1482;51.398;7.128;2023-03-07T05:48:37;13.80;;;11.67;;
2944;SDS011;1482;51.398;7.128;2023-03-07T05:51:03;14.17;;;10.80;;
2944;SDS011;1482;51.398;7.128;2023-03-07T05:53:28;17.30;;;11.60;;
2944;SDS011;1482;51.398;7.128;2023-03-07T05:55:54;19.50;;;13.00;;
2944;SDS011;1482;51.398;7.128;2023-03-07T05:58:20;18.33;;;12.20;;
2944;SDS011;1482;51.398;7.128;2023-03-07T06:00:45;15.23;;;11.23;;
2944;SDS011;1482;51.398;7.128;2023-03-07T06:03:11;17.93;;;11.53;;
2944;SDS011;1482;51.398;7.128;2023-03-07T06:05:36;11.97;;;10.03;;
2944;SDS011;1482;51.398;7.128;2023-03-07T06:08:03;17.70;;;10.90;;
2944;SDS011;1482;51.398;7.128;2023-03-07T06:10:28;12.10;;;9.67;;
2944;SDS011;1482;51.398;7.128;2023-03-07T06:12:54;14.17;;;10.70;;
2944;SDS011;1482;51.398;7.128;2023-03-07T06:15:20;13.20;;;10.07;;
2944;SDS011;1482;51.398;7.128;2023-03-07T06:17:46;14.90;;;11.27;;
2944;SDS011;1482;51.398;7.128;2023-03-07T06:20:12;13.07;;;11.43;;
2944;SDS011;1482;51.398;7.128;2023-03-07T06:22:38;14.90;;;10.57;;
2944;SDS011;1482;51.398;7.128;2023-03-07T06:25:04;12.67;;;10.47;;
2944;SDS011;1482;51.398;7.128;2023-03-07T06:27:31;10.53;;;9.43;;
2944;SDS011;1482;51.398;7.128;2023-03-07T06:29:57;12.17;;;9.57;;
2944;SDS011;1482;51.398;7.128;2023-03-07T06:32:23;16.97;;;12.07;;
2944;SDS011;1482;51.398;7.128;2023-03-07T06:34:49;14.23;;;11.00;;
2944;SDS011;1482;51.398;7.128;2023-03-07T06:37:14;14.73;;;10.10;;
2944;SDS011;1482;51.398;7.128;2023-03-07T06:39:40;15.53;;;10.77;;
2944;SDS011;1482;51.398;7.128;2023-03-07T06:42:07;15.93;;;11.50;;
2944;SDS011;1482;51.398;7.128;2023-03-07T06:44:32;16.40;;;10.37;;
2944;SDS011;1482;51.398;7.128;2023-03-07T06:46:58;15.93;;;11.77;;
2944;SDS011;1482;51.398;7.128;2023-03-07T06:49:23;21.50;;;11.17;;
2944;SDS011;1482;51.398;7.128;2023-03-07T06:51:49;17.93;;;12.70;;
2944;SDS011;1482;51.398;7.128;2023-03-07T06:54:15;17.53;;;11.60;;
2944;SDS011;1482;51.398;7.128;2023-03-07T06:56:40;16.20;;;11.93;;
2944;SDS011;1482;51.398;7.128;2023-03-07T06:59:06;15.30;;;11.80;;
2944;SDS011;1482;51.398;7.128;2023-03-07T07:01:32;15.80;;;13.73;;
2944;SDS011;1482;51.398;7.128;2023-03-07T07:03:59;14.67;;;11.10;;
2944;SDS011;1482;51.398;7.128;2023-03-07T07:06:25;16.20;;;12.10;;
2944;SDS011;1482;51.398;7.128;2023-03-07T07:08:54;16.07;;;9.70;;
2944;SDS011;1482;51.398;7.128;2023-03-07T07:11:20;15.07;;;10.73;;
2944;SDS011;1482;51.398;7.128;2023-03-07T07:13:46;12.83;;;9.87;;
2944;SDS011;1482;51.398;7.128;2023-03-07T07:16:12;15.90;;;12.00;;
2944;SDS011;1482;51.398;7.128;2023-03-07T07:18:37;14.67;;;11.07;;
2944;SDS011;1482;51.398;7.128;2023-03-07T07:21:03;15.37;;;10.40;;
2944;SDS011;1482;51.398;7.128;2023-03-07T07:23:29;12.90;;;10.10;;
2944;SDS011;1482;51.398;7.128;2023-03-07T07:25:55;14.57;;;10.67;;
2944;SDS011;1482;51.398;7.128;2023-03-07T07:28:20;18.07;;;10.80;;
2944;SDS011;1482;51.398;7.128;2023-03-07T07:30:46;18.60;;;10.40;;
2944;SDS011;1482;51.398;7.128;2023-03-07T07:33:12;22.57;;;11.73;;
2944;SDS011;1482;51.398;7.128;2023-03-07T07:35:37;16.43;;;11.23;;
2944;SDS011;1482;51.398;7.128;2023-03-07T07:38:03;15.00;;;10.20;;
2944;SDS011;1482;51.398;7.128;2023-03-07T07:40:29;16.73;;;10.63;;
2944;SDS011;1482;51.398;7.128;2023-03-07T07:42:54;15.23;;;11.27;;
2944;SDS011;1482;51.398;7.128;2023-03-07T07:45:20;16.80;;;11.93;;
2944;SDS011;1482;51.398;7.128;2023-03-07T07:47:47;16.37;;;12.20;;
2944;SDS011;1482;51.398;7.128;2023-03-07T07:50:14;16.80;;;12.90;;
2944;SDS011;1482;51.398;7.128;2023-03-07T07:52:41;15.10;;;11.20;;
2944;SDS011;1482;51.398;7.128;2023-03-07T07:55:06;14.43;;;11.63;;
2944;SDS011;1482;51.398;7.128;2023-03-07T07:57:34;13.30;;;9.73;;
2944;SDS011;1482;51.398;7.128;2023-03-07T08:00:00;14.53;;;10.43;;
2944;SDS011;1482;51.398;7.128;2023-03-07T08:02:26;16.20;;;11.80;;
2944;SDS011;1482;51.398;7.128;2023-03-07T08:04:52;13.30;;;10.23;;
2944;SDS011;1482;51.398;7.128;2023-03-07T08:07:18;12.80;;;10.60;;
2944;SDS011;1482;51.398;7.128;2023-03-07T08:09:43;14.37;;;11.43;;
2944;SDS011;1482;51.398;7.128;2023-03-07T08:12:10;16.07;;;12.10;;
2944;SDS011;1482;51.398;7.128;2023-03-07T08:14:36;19.40;;;11.50;;
2944;SDS011;1482;51.398;7.128;2023-03-07T08:17:02;14.40;;;11.40;;
2944;SDS011;1482;51.398;7.128;2023-03-07T08:19:28;17.33;;;10.83;;
2944;SDS011;1482;51.398;7.128;2023-03-07T08:21:53;18.30;;;11.17;;
2944;SDS011;1482;51.398;7.128;2023-03-07T08:24:19;13.97;;;11.20;;
2944;SDS011;1482;51.398;7.128;2023-03-07T08:26:45;15.80;;;11.20;;
2944;SDS011;1482;51.398;7.128;2023-03-07T08:29:10;12.27;;;10.17;;
2944;SDS011;1482;51.398;7.128;2023-03-07T08:31:36;15.70;;;10.67;;
2944;SDS011;1482;51.398;7.128;2023-03-07T08:34:02;15.03;;;10.77;;
2944;SDS011;1482;51.398;7.128;2023-03-07T08:36:27;18.63;;;11.40;;
2944;SDS011;1482;51.398;7.128;2023-03-07T08:38:53;13.00;;;10.00;;
2944;SDS011;1482;51.398;7.128;2023-03-07T08:41:19;16.93;;;9.70;;
2944;SDS011;1482;51.398;7.128;2023-03-07T08:43:46;16.03;;;11.40;;
2944;SDS011;1482;51.398;7.128;2023-03-07T08:46:12;11.87;;;10.23;;
2944;SDS011;1482;51.398;7.128;2023-03-07T08:48:38;11.53;;;8.73;;
2944;SDS011;1482;51.398;7.128;2023-03-07T08:51:04;12.17;;;8.60;;
2944;SDS011;1482;51.398;7.128;2023-03-07T08:53:32;12.70;;;9.90;;
2944;SDS011;1482;51.398;7.128;2023-03-07T08:55:57;11.80;;;8.17;;
2944;SDS011;1482;51.398;7.128;2023-03-07T08:58:23;10.13;;;8.60;;
2944;SDS011;1482;51.398;7.128;2023-03-07T09:00:48;13.77;;;9.73;;
2944;SDS011;1482;51.398;7.128;2023-03-07T09:03:14;11.00;;;9.13;;
2944;SDS011;1482;51.398;7.128;2023-03-07T09:05:39;9.50;;;8.13;;
2944;SDS011;1482;51.398;7.128;2023-03-07T09:08:05;14.43;;;9.83;;
2944;SDS011;1482;51.398;7.128;2023-03-07T09:10:32;12.03;;;8.50;;
2944;SDS011;1482;51.398;7.128;2023-03-07T09:12:58;11.87;;;9.03;;
2944;SDS011;1482;51.398;7.128;2023-03-07T09:15:24;16.00;;;11.03;;
2944;SDS011;1482;51.398;7.128;2023-03-07T09:17:50;15.40;;;9.90;;
2944;SDS011;1482;51.398;7.128;2023-03-07T09:20:16;19.13;;;9.57;;
2944;SDS011;1482;51.398;7.128;2023-03-07T09:22:42;10.17;;;8.00;;
2944;SDS011;1482;51.398;7.128;2023-03-07T09:25:08;11.93;;;8.40;;
2944;SDS011;1482;51.398;7.128;2023-03-07T09:27:34;11.83;;;9.13;;
2944;SDS011;1482;51.398;7.128;2023-03-07T09:30:00;12.73;;;9.20;;
2944;SDS011;1482;51.398;7.128;2023-03-07T09:32:26;13.53;;;9.43;;
2944;SDS011;1482;51.398;7.128;2023-03-07T09:34:51;10.97;;;8.60;;
2944;SDS011;1482;51.398;7.128;2023-03-07T09:37:17;11.87;;;9.50;;
2944;SDS011;1482;51.398;7.128;2023-03-07T09:39:43;14.97;;;10.60;;
2944;SDS011;1482;51.398;7.128;2023-03-07T09:50:23;9.93;;;8.23;;
2944;SDS011;1482;51.398;7.128;2023-03-07T09:53:18;10.73;;;7.87;;
2944;SDS011;1482;51.398;7.128;2023-03-07T09:56:02;9.13;;;7.07;;
2944;SDS011;1482;51.398;7.128;2023-03-07T09:58:32;8.10;;;7.30;;
2944;SDS011;1482;51.398;7.128;2023-03-07T10:01:02;12.10;;;8.30;;
2944;SDS011;1482;51.398;7.128;2023-03-07T10:06:25;8.80;;;7.90;;
2944;SDS011;1482;51.398;7.128;2023-03-07T10:09:13;8.90;;;8.00;;
2944;SDS011;1482;51.398;7.128;2023-03-07T10:22:18;12.17;;;10.90;;
2944;SDS011;1482;51.398;7.128;2023-03-07T10:25:23;16.10;;;11.30;;
2944;SDS011;1482;51.398;7.128;2023-03-07T10:28:07;13.77;;;10.60;;
2944;SDS011;1482;51.398;7.128;2023-03-07T10:31:29;13.47;;;10.17;;
2944;SDS011;1482;51.398;7.128;2023-03-07T10:33:53;11.93;;;9.57;;
2944;SDS011;1482;51.398;7.128;2023-03-07T10:36:27;18.07;;;12.63;;
2944;SDS011;1482;51.398;7.128;2023-03-07T10:39:01;13.53;;;9.20;;
2944;SDS011;1482;51.398;7.128;2023-03-07T10:41:30;14.47;;;9.67;;
2944;SDS011;1482;51.398;7.128;2023-03-07T10:43:56;17.87;;;10.97;;
2944;SDS011;1482;51.398;7.128;2023-03-07T10:46:23;13.13;;;10.03;;
2944;SDS011;1482;51.398;7.128;2023-03-07T10:48:53;12.07;;;9.03;;
2944;SDS011;1482;51.398;7.128;2023-03-07T10:51:41;13.07;;;9.27;;
2944;SDS011;1482;51.398;7.128;2023-03-07T10:54:37;13.03;;;7.70;;
2944;SDS011;1482;51.398;7.128;2023-03-07T10:59:43;12.37;;;8.50;;
2944;SDS011;1482;51.398;7.128;2023-03-07T11:04:59;10.37;;;6.97;;
2944;SDS011;1482;51.398;7.128;2023-03-07T11:07:27;10.57;;;7.40;;
2944;SDS011;1482;51.398;7.128;2023-03-07T11:09:55;9.90;;;7.33;;
2944;SDS011;1482;51.398;7.128;2023-03-07T11:12:23;13.80;;;8.83;;
2944;SDS011;1482;51.398;7.128;2023-03-07T11:14:57;11.50;;;5.53;;
2944;SDS011;1482;51.398;7.128;2023-03-07T11:17:43;8.17;;;6.13;;
2944;SDS011;1482;51.398;7.128;2023-03-07T11:20:27;8.43;;;6.67;;
2944;SDS011;1482;51.398;7.128;2023-03-07T11:25:47;8.37;;;6.67;;
2944;SDS011;1482;51.398;7.128;2023-03-07T11:36:14;12.73;;;8.90;;
2944;SDS011;1482;51.398;7.128;2023-03-07T11:41:39;7.20;;;5.53;;
2944;SDS011;1482;51.398;7.128;2023-03-07T11:47:31;13.97;;;9.20;;
2944;SDS011;1482;51.398;7.128;2023-03-07T12:17:20;11.80;;;7.13;;
2944;SDS011;1482;51.398;7.128;2023-03-07T12:22:55;10.40;;;7.87;;
2944;SDS011;1482;51.398;7.128;2023-03-07T12:25:32;10.07;;;7.27;;
2944;SDS011;1482;51.398;7.128;2023-03-07T12:28:09;9.50;;;7.83;;
2944;SDS011;1482;51.398;7.128;2023-03-07T12:30:51;15.60;;;9.33;;
2944;SDS011;1482;51.398;7.128;2023-03-07T12:33:45;11.53;;;9.00;;
2944;SDS011;1482;51.398;7.128;2023-03-07T12:36:29;13.77;;;9.20;;
2944;SDS011;1482;51.398;7.128;2023-03-07T12:39:04;14.20;;;11.03;;
2944;SDS011;1482;51.398;7.128;2023-03-07T12:41:49;14.73;;;8.27;;
2944;SDS011;1482;51.398;7.128;2023-03-07T12:44:20;13.80;;;10.63;;
2944;SDS011;1482;51.398;7.128;2023-03-07T12:47:09;16.30;;;11.23;;
2944;SDS011;1482;51.398;7.128;2023-03-07T12:49:48;15.50;;;11.27;;
2944;SDS011;1482;51.398;7.128;2023-03-07T12:52:24;16.97;;;9.93;;
2944;SDS011;1482;51.398;7.128;2023-03-07T12:58:18;14.50;;;11.50;;
2944;SDS011;1482;51.398;7.128;2023-03-07T13:00:57;13.80;;;10.33;;
2944;SDS011;1482;51.398;7.128;2023-03-07T13:06:00;9.73;;;8.10;;
2944;SDS011;1482;51.398;7.128;2023-03-07T13:08:27;7.87;;;6.83;;
2944;SDS011;1482;51.398;7.128;2023-03-07T13:10:53;10.27;;;7.90;;
2944;SDS011;1482;51.398;7.128;2023-03-07T13:16:09;11.47;;;8.80;;
2944;SDS011;1482;51.398;7.128;2023-03-07T13:18:36;9.90;;;7.53;;
2944;SDS011;1482;51.398;7.128;2023-03-07T13:21:07;9.40;;;7.10;;
2944;SDS011;1482;51.398;7.128;2023-03-07T13:23:34;8.00;;;7.20;;
2944;SDS011;1482;51.398;7.128;2023-03-07T13:26:01;11.27;;;7.90;;
2944;SDS011;1482;51.398;7.128;2023-03-07T13:28:30;21.60;;;16.83;;
2944;SDS011;1482;51.398;7.128;2023-03-07T13:33:45;15.50;;;12.70;;
2944;SDS011;1482;51.398;7.128;2023-03-07T13:36:31;11.87;;;10.63;;
2944;SDS011;1482;51.398;7.128;2023-03-07T13:38:59;10.53;;;8.77;;
2944;SDS011;1482;51.398;7.128;2023-03-07T13:44:27;9.63;;;8.50;;
2944;SDS011;1482;51.398;7.128;2023-03-07T13:47:01;8.40;;;6.80;;
2944;SDS011;1482;51.398;7.128;2023-03-07T13:54:54;12.33;;;10.97;;
2944;SDS011;1482;51.398;7.128;2023-03-07T13:57:20;5.93;;;5.33;;
2944;SDS011;1482;51.398;7.128;2023-03-07T13:59:49;9.70;;;7.47;;
2944;SDS011;1482;51.398;7.128;2023-03-07T14:02:16;11.10;;;7.13;;
2944;SDS011;1482;51.398;7.128;2023-03-07T14:04:46;7.17;;;6.13;;
2944;SDS011;1482;51.398;7.128;2023-03-07T14:09:55;13.53;;;9.07;;
2944;SDS011;1482;51.398;7.128;2023-03-07T14:15:33;7.57;;;6.77;;
2944;SDS011;1482;51.398;7.128;2023-03-07T14:26:09;25.00;;;9.80;;
2944;SDS011;1482;51.398;7.128;2023-03-07T14:28:46;19.20;;;9.50;;
2944;SDS011;1482;51.398;7.128;2023-03-07T14:31:22;16.33;;;10.20;;
2944;SDS011;1482;51.398;7.128;2023-03-07T14:33:49;19.23;;;10.40;;
2944;SDS011;1482;51.398;7.128;2023-03-07T14:36:26;16.83;;;10.27;;
2944;SDS011;1482;51.398;7.128;2023-03-07T14:38:55;18.67;;;12.50;;
2944;SDS011;1482;51.398;7.128;2023-03-07T14:44:10;16.40;;;11.10;;
2944;SDS011;1482;51.398;7.128;2023-03-07T14:47:03;10.67;;;7.93;;
2944;SDS011;1482;51.398;7.128;2023-03-07T14:50:02;22.47;;;11.90;;
2944;SDS011;1482;51.398;7.128;2023-03-07T14:52:29;10.47;;;8.20;;
2944;SDS011;1482;51.398;7.128;2023-03-07T14:54:56;8.43;;;7.40;;
2944;SDS011;1482;51.398;7.128;2023-03-07T14:57:31;12.80;;;8.07;;
2944;SDS011;1482;51.398;7.128;2023-03-07T15:02:48;8.33;;;6.00;;
2944;SDS011;1482;51.398;7.128;2023-03-07T15:05:22;9.47;;;7.27;;
2944;SDS011;1482;51.398;7.128;2023-03-07T15:07:48;8.27;;;7.03;;
2944;SDS011;1482;51.398;7.128;2023-03-07T15:10:16;8.60;;;6.60;;
2944;SDS011;1482;51.398;7.128;2023-03-07T15:12:44;9.87;;;7.00;;
2944;SDS011;1482;51.398;7.128;2023-03-07T15:15:23;7.80;;;5.60;;
2944;SDS011;1482;51.398;7.128;2023-03-07T15:18:02;7.97;;;5.07;;
2944;SDS011;1482;51.398;7.128;2023-03-07T15:20:44;9.80;;;6.00;;
2944;SDS011;1482;51.398;7.128;2023-03-07T15:23:15;7.50;;;6.67;;
2944;SDS011;1482;51.398;7.128;2023-03-07T15:25:46;14.60;;;6.87;;
2944;SDS011;1482;51.398;7.128;2023-03-07T15:28:20;13.70;;;7.03;;
2944;SDS011;1482;51.398;7.128;2023-03-07T15:30:50;11.33;;;7.03;;
2944;SDS011;1482;51.398;7.128;2023-03-07T15:35:43;7.53;;;6.23;;
2944;SDS011;1482;51.398;7.128;2023-03-07T15:38:14;7.40;;;6.07;;
2944;SDS011;1482;51.398;7.128;2023-03-07T15:40:43;8.90;;;6.93;;
2944;SDS011;1482;51.398;7.128;2023-03-07T15:43:13;11.97;;;6.43;;
2944;SDS011;1482;51.398;7.128;2023-03-07T15:45:56;16.53;;;10.27;;
2944;SDS011;1482;51.398;7.128;2023-03-07T15:48:33;10.27;;;8.43;;
2944;SDS011;1482;51.398;7.128;2023-03-07T15:51:17;10.53;;;7.13;;
2944;SDS011;1482;51.398;7.128;2023-03-07T15:53:56;9.93;;;6.70;;
2944;SDS011;1482;51.398;7.128;2023-03-07T15:56:25;11.37;;;7.70;;
2944;SDS011;1482;51.398;7.128;2023-03-07T15:59:02;8.23;;;6.80;;
2944;SDS011;1482;51.398;7.128;2023-03-07T16:01:31;11.40;;;7.60;;
2944;SDS011;1482;51.398;7.128;2023-03-07T16:04:00;11.10;;;8.90;;
2944;SDS011;1482;51.398;7.128;2023-03-07T16:06:32;12.30;;;10.23;;
2944;SDS011;1482;51.398;7.128;2023-03-07T16:09:09;9.03;;;7.67;;
2944;SDS011;1482;51.398;7.128;2023-03-07T16:11:36;13.03;;;9.97;;
2944;SDS011;1482;51.398;7.128;2023-03-07T16:14:02;17.03;;;11.70;;
2944;SDS011;1482;51.398;7.128;2023-03-07T16:16:29;13.57;;;10.83;;
2944;SDS011;1482;51.398;7.128;2023-03-07T16:18:55;12.50;;;9.40;;
2944;SDS011;1482;51.398;7.128;2023-03-07T16:21:22;14.10;;;10.67;;
2944;SDS011;1482;51.398;7.128;2023-03-07T16:23:48;13.43;;;9.60;;
2944;SDS011;1482;51.398;7.128;2023-03-07T16:26:16;15.20;;;10.70;;
2944;SDS011;1482;51.398;7.128;2023-03-07T16:28:45;15.50;;;11.00;;
2944;SDS011;1482;51.398;7.128;2023-03-07T16:31:12;12.50;;;10.00;;
2944;SDS011;1482;51.398;7.128;2023-03-07T16:33:39;16.40;;;11.30;;
2944;SDS011;1482;51.398;7.128;2023-03-07T16:36:07;13.60;;;9.70;;
2944;SDS011;1482;51.398;7.128;2023-03-07T16:38:34;14.57;;;10.00;;
2944;SDS011;1482;51.398;7.128;2023-03-07T16:40:59;16.10;;;10.33;;
2944;SDS011;1482;51.398;7.128;2023-03-07T16:43:30;14.83;;;9.27;;
2944;SDS011;1482;51.398;7.128;2023-03-07T16:45:56;14.60;;;10.00;;
2944;SDS011;1482;51.398;7.128;2023-03-07T16:48:22;13.63;;;10.13;;
2944;SDS011;1482;51.398;7.128;2023-03-07T16:50:48;10.53;;;7.87;;
2944;SDS011;1482;51.398;7.128;2023-03-07T16:53:14;13.20;;;8.23;;
2944;SDS011;1482;51.398;7.128;2023-03-07T16:55:40;11.67;;;7.97;;
2944;SDS011;1482;51.398;7.128;2023-03-07T16:58:06;13.40;;;8.60;;
2944;SDS011;1482;51.398;7.128;2023-03-07T17:00:47;12.30;;;7.97;;
2944;SDS011;1482;51.398;7.128;2023-03-07T17:03:14;10.13;;;7.83;;
2944;SDS011;1482;51.398;7.128;2023-03-07T17:05:40;26.30;;;16.80;;
2944;SDS011;1482;51.398;7.128;2023-03-07T17:08:05;21.13;;;14.70;;
2944;SDS011;1482;51.398;7.128;2023-03-07T17:10:32;11.00;;;8.53;;
2944;SDS011;1482;51.398;7.128;2023-03-07T17:12:58;11.00;;;8.87;;
2944;SDS011;1482;51.398;7.128;2023-03-07T17:15:25;9.37;;;7.67;;
2944;SDS011;1482;51.398;7.128;2023-03-07T17:17:54;13.27;;;9.27;;